DNKT

Katsina / Yaradura Airport

Katsina, Nigeria
METAR DNKT 211400Z 09003KT CAVOK 34/08 Q1013
Observed Flight Rules
Jan-21 @ 14:00 UTC (14 hours ago) Visual Flight Rules
Wind Visibility Clouds
90° at 3 knots 10,000+ meters
  • Clear skies
Temperatures Readings
Current 34°C / 93°F
Dewpoint 8°C / 46°F
Humidity 20%
Altimeter 29.91" Hg
Pressure 1012.92 hPa
Elevation 503
METAR DNKT 211400Z 09003KT CAVOK 34/08 Q1013
Observed Flight Rules
Jan-21 @ 14:00 UTC
(14 hours ago)
VFR
Wind Visibility
90° at 3 knots 10,000+ meters
Clouds
  • Clear skies
Temperature Dewpoint
34°C / 93°F 8°C / 46°F
Humidity Altimeter Pressure
20% 29.91" Hg 1012.92 hPa